Time;durP1;ratioP1;P1;durP2;ratioP2;P2;SDS_P1;SDS_P2;PMS_P1;PMS_P2;Temp;Humidity;BMP_temperature;BMP_pressure;BME280_temperature;BME280_humidity;BME280_pressure;Samples;Min_cycle;Max_cycle;Signal;HPM_P1;HPM_P2
2021/12/14 00:00:26;;;;;;;;;18.25;13.50;;;;;6.23;82.46;101956.19;4996127;28;45639;-80
2021/12/14 00:02:52;;;;;;;;;17.00;11.50;;;;;6.20;83.34;101950.88;4995727;28;46336;-81
2021/12/14 00:05:20;;;;;;;;;15.50;12.00;;;;;6.22;82.94;101965.81;4995382;28;45352;-79
2021/12/14 00:07:46;;;;;;;;;13.50;13.25;;;;;6.26;82.63;101958.00;5000228;28;45432;-80
2021/12/14 00:10:31;;;;;;;;;17.25;9.25;;;;;6.21;82.56;101948.28;5008863;28;45535;-79
2021/12/14 00:13:04;;;;;;;;;8.25;8.25;;;;;6.25;83.09;101950.97;4995913;28;45492;-81
2021/12/14 00:15:30;;;;;;;;;15.75;13.00;;;;;6.25;82.40;101946.59;4994779;28;45425;-80
2021/12/14 00:18:03;;;;;;;;;21.50;15.00;;;;;6.26;82.36;101926.47;4995751;28;45392;-80
2021/12/14 00:20:32;;;;;;;;;18.25;14.25;;;;;6.26;82.97;101926.47;5001087;28;45405;-80
2021/12/14 00:25:49;;;;;;;;;21.50;19.50;;;;;6.27;83.16;101941.38;4960699;28;45460;-81
2021/12/14 00:28:26;;;;;;;;;18.50;13.75;;;;;6.27;82.54;101962.38;4964770;28;44804;-79
2021/12/14 00:30:54;;;;;;;;;14.00;10.75;;;;;6.28;83.10;101962.41;4956772;28;45436;-79
2021/12/14 00:33:25;;;;;;;;;18.50;12.25;;;;;6.28;82.09;101945.78;4956047;28;47407;-80
2021/12/14 00:35:51;;;;;;;;;10.75;6.25;;;;;6.30;82.17;101944.03;4955418;28;45403;-80
2021/12/14 00:38:21;;;;;;;;;12.50;7.00;;;;;6.29;81.29;101942.28;4954152;28;45487;-80
2021/12/14 00:40:54;;;;;;;;;5.00;5.00;;;;;6.31;81.82;101932.69;4953672;28;45487;-80
2021/12/14 00:43:21;;;;;;;;;11.25;7.75;;;;;6.33;81.07;101926.63;4953487;28;45632;-80
2021/12/14 00:45:47;;;;;;;;;4.25;4.25;;;;;6.33;81.77;101944.09;4954298;28;45448;-80
2021/12/14 00:48:14;;;;;;;;;6.75;6.75;;;;;6.32;81.59;101940.59;4960036;28;45329;-81
2021/12/14 00:50:43;;;;;;;;;7.00;7.00;;;;;6.31;81.48;101936.19;4964593;28;45453;-76
2021/12/14 00:53:09;;;;;;;;;2.00;2.00;;;;;6.33;81.85;101945.00;4953225;28;45399;-76
2021/12/14 00:55:42;;;;;;;;;11.00;6.00;;;;;6.29;82.10;101916.03;4952680;28;45436;-75
2021/12/14 00:58:09;;;;;;;;;9.75;6.50;;;;;6.34;81.95;101924.88;4954414;28;45551;-77
2021/12/14 01:00:40;;;;;;;;;10.25;8.00;;;;;6.34;82.15;101924.88;4950938;28;45434;-74
2021/12/14 01:03:07;;;;;;;;;6.00;6.00;;;;;6.34;81.24;101931.00;4987998;28;46751;-76
2021/12/14 01:05:36;;;;;;;;;11.00;5.50;;;;;6.32;81.68;101939.72;5013581;28;45478;-76
2021/12/14 01:08:08;;;;;;;;;6.75;5.75;;;;;6.33;81.83;101938.84;5013105;28;45392;-75
2021/12/14 01:11:06;;;;;;;;;3.50;3.50;;;;;6.33;81.78;101947.63;5013163;28;45383;-76
2021/12/14 01:13:36;;;;;;;;;6.00;6.00;;;;;6.35;81.79;101953.78;4931459;28;46430;-76
2021/12/14 01:16:18;;;;;;;;;4.00;4.00;;;;;6.33;81.27;101941.47;4932269;28;45550;-76
2021/12/14 01:18:50;;;;;;;;;4.00;3.25;;;;;6.36;81.59;101949.41;4932842;28;45480;-74
2021/12/14 01:24:03;;;;;;;;;4.00;4.00;;;;;6.35;81.33;101955.53;4931486;28;45548;-76
2021/12/14 01:26:33;;;;;;;;;4.00;4.00;;;;;6.37;81.24;101951.19;4933426;28;45511;-75
2021/12/14 01:29:00;;;;;;;;;11.50;4.00;;;;;6.35;81.53;101971.31;4919070;28;45446;-76
2021/12/14 01:31:34;;;;;;;;;3.25;3.25;;;;;6.38;81.19;101974.00;4932041;28;45441;-76
2021/12/14 01:34:13;;;;;;;;;11.75;6.50;;;;;6.34;81.65;101964.28;4928422;28;46446;-76
2021/12/14 01:36:47;;;;;;;;;5.00;5.00;;;;;6.42;81.78;101986.31;4916343;28;45514;-76
2021/12/14 01:42:03;;;;;;;;;5.00;3.75;;;;;6.43;81.78;101980.19;4933896;28;45534;-76
2021/12/14 01:44:34;;;;;;;;;6.25;6.25;;;;;6.43;81.92;101988.09;4934692;28;45572;-75
2021/12/14 01:47:06;;;;;;;;;6.75;6.75;;;;;6.41;81.55;102002.94;4935377;28;45458;-76
2021/12/14 01:49:31;;;;;;;;;3.00;3.00;;;;;6.38;81.16;102002.88;4952421;28;45399;-75
2021/12/14 01:52:01;;;;;;;;;9.25;5.75;;;;;6.36;81.75;101997.59;5016615;28;45439;-76
2021/12/14 01:54:34;;;;;;;;;7.00;4.50;;;;;6.40;81.33;102015.16;5014261;28;45387;-76
2021/12/14 01:57:07;;;;;;;;;9.50;3.50;;;;;6.40;81.33;102006.41;5016432;28;45498;-76
2021/12/14 01:59:36;;;;;;;;;6.00;6.00;;;;;6.37;81.24;102019.47;5018418;28;45375;-75
2021/12/14 02:02:28;;;;;;;;;10.50;7.00;;;;;6.26;80.92;101995.63;5016608;28;45491;-76
2021/12/14 02:04:54;;;;;;;;;5.75;5.00;;;;;6.25;81.50;102003.47;4978917;28;45449;-76
2021/12/14 02:07:21;;;;;;;;;3.25;3.25;;;;;6.32;81.41;102029.03;4996479;28;45419;-76
2021/12/14 02:09:58;;;;;;;;;14.00;9.50;;;;;6.31;81.11;102035.13;5013622;28;45544;-75
2021/12/14 02:12:27;;;;;;;;;6.25;5.00;;;;;6.33;81.57;102039.56;5016119;28;45438;-75
2021/12/14 02:15:01;;;;;;;;;4.50;3.00;;;;;6.35;82.08;102047.47;5014484;28;45944;-76
2021/12/14 02:17:26;;;;;;;;;11.00;8.00;;;;;6.36;81.11;102049.22;4997972;28;45384;-75
2021/12/14 02:19:52;;;;;;;;;6.50;6.50;;;;;6.36;81.42;102055.38;5016082;28;45432;-75
2021/12/14 02:22:18;;;;;;;;;3.25;3.25;;;;;6.39;81.32;102065.94;5015915;28;45383;-76
2021/12/14 02:24:47;;;;;;;;;15.00;7.50;;;;;6.39;82.28;102057.16;5015034;28;45793;-76
2021/12/14 02:27:12;;;;;;;;;9.25;9.25;;;;;6.39;81.35;102044.03;5016045;28;45682;-75
2021/12/14 02:29:42;;;;;;;;;9.50;6.75;;;;;6.41;81.88;102050.22;5016989;28;45460;-77
2021/12/14 02:32:13;;;;;;;;;7.50;7.50;;;;;6.40;81.76;102035.31;5017382;28;45254;-76
2021/12/14 02:34:41;;;;;;;;;8.00;8.00;;;;;6.39;81.38;102023.91;5014882;28;45514;-76
2021/12/14 02:37:07;;;;;;;;;7.00;6.50;;;;;6.37;81.88;102019.47;4999206;28;45519;-76
2021/12/14 02:42:07;;;;;;;;;3.50;3.50;;;;;6.32;81.58;102001.00;5002410;28;45578;-76
2021/12/14 02:44:32;;;;;;;;;6.00;6.00;;;;;6.22;81.67;101986.81;4997389;28;48461;-75
2021/12/14 02:47:03;;;;;;;;;5.00;4.25;;;;;6.22;81.39;101988.53;5016670;28;45427;-76
2021/12/14 02:49:31;;;;;;;;;9.25;5.00;;;;;6.17;81.34;102000.69;5016488;28;45428;-76
2021/12/14 02:52:01;;;;;;;;;6.25;5.00;;;;;6.16;82.55;102009.41;5014247;28;45372;-76
2021/12/14 02:54:42;;;;;;;;;7.00;4.00;;;;;6.17;81.74;102003.31;5014883;28;46148;-77
2021/12/14 02:57:12;;;;;;;;;9.25;6.00;;;;;6.19;81.70;101999.84;5015378;28;45528;-76
2021/12/14 02:59:42;;;;;;;;;7.00;3.75;;;;;6.22;82.27;102005.19;4997392;28;45458;-78
2021/12/14 03:02:11;;;;;;;;;4.00;4.00;;;;;6.25;81.83;102019.22;5017232;28;45614;-76
2021/12/14 03:04:45;;;;;;;;;4.00;4.00;;;;;6.25;82.23;102011.34;5016462;28;45501;-76
2021/12/14 03:07:12;;;;;;;;;6.25;4.00;;;;;6.25;82.31;101998.22;5015999;28;45423;-76
2021/12/14 03:12:19;;;;;;;;;6.00;6.00;;;;;6.27;81.98;101986.00;5010996;28;45394;-76
2021/12/14 03:15:14;;;;;;;;;6.50;6.50;;;;;6.32;81.33;101976.50;4997040;28;45994;-75
2021/12/14 03:17:43;;;;;;;;;7.00;6.00;;;;;6.32;81.33;101985.25;5010985;28;45403;-77
2021/12/14 03:20:40;;;;;;;;;6.75;6.75;;;;;6.32;81.58;101971.25;5006777;28;45483;-76
2021/12/14 03:23:30;;;;;;;;;15.00;6.00;;;;;6.34;81.36;101962.50;4999212;28;45341;-76
2021/12/14 03:25:59;;;;;;;;;7.25;4.50;;;;;6.37;81.50;101972.22;5014046;28;45632;-76
2021/12/14 03:28:27;;;;;;;;;6.50;6.50;;;;;6.36;81.04;101978.31;5013746;28;45412;-76
2021/12/14 03:30:58;;;;;;;;;8.50;6.00;;;;;6.37;80.73;101983.59;5014143;28;45388;-76
2021/12/14 03:33:28;;;;;;;;;10.00;7.50;;;;;6.39;80.45;101962.59;5017510;28;45539;-76
2021/12/14 03:36:02;;;;;;;;;5.00;5.00;;;;;6.39;81.25;101974.03;4995970;28;46043;-76
2021/12/14 03:38:41;;;;;;;;;7.00;7.00;;;;;6.40;80.31;101973.13;5004867;28;45329;-76
2021/12/14 03:41:17;;;;;;;;;9.25;8.75;;;;;6.39;81.11;101967.84;5014327;28;45945;-76
2021/12/14 03:43:52;;;;;;;;;10.50;7.00;;;;;6.42;80.63;101957.41;5011337;28;45436;-75
2021/12/14 03:46:18;;;;;;;;;9.00;6.25;;;;;6.43;80.75;101956.56;4993896;28;46248;-76
2021/12/14 03:48:44;;;;;;;;;11.50;7.50;;;;;6.46;80.89;101954.00;5009343;28;45436;-76
2021/12/14 03:51:11;;;;;;;;;5.00;5.00;;;;;6.46;80.33;101951.38;5014406;28;45493;-75
2021/12/14 03:53:36;;;;;;;;;8.25;6.00;;;;;6.46;80.61;101958.38;5002994;28;45460;-76
2021/12/14 03:56:07;;;;;;;;;7.00;7.00;;;;;6.46;80.52;101971.50;5014396;28;46006;-75
2021/12/14 03:58:39;;;;;;;;;13.50;10.50;;;;;6.50;80.16;101971.59;4980677;28;45476;-77
2021/12/14 04:01:10;;;;;;;;;13.75;7.50;;;;;6.48;80.43;101961.91;5013505;28;45546;-76
2021/12/14 04:03:38;;;;;;;;;9.50;8.00;;;;;6.48;80.91;101960.16;5014378;28;45314;-76
2021/12/14 04:06:05;;;;;;;;;11.00;8.50;;;;;6.44;80.61;101950.47;5016118;28;46052;-75
2021/12/14 04:08:30;;;;;;;;;9.00;6.75;;;;;6.40;80.14;101946.00;5012521;28;45399;-76
2021/12/14 04:11:02;;;;;;;;;15.50;6.50;;;;;6.36;81.02;101941.53;5013909;28;45432;-75
2021/12/14 04:13:31;;;;;;;;;9.00;7.00;;;;;6.31;81.06;101940.56;5014724;28;45361;-76
2021/12/14 04:15:57;;;;;;;;;9.00;9.00;;;;;6.29;81.04;101942.28;4976556;28;46455;-76
2021/12/14 04:18:26;;;;;;;;;14.00;11.00;;;;;6.32;80.98;101939.72;4993446;28;45546;-76
2021/12/14 04:20:55;;;;;;;;;10.00;7.00;;;;;6.29;81.20;101937.03;4994182;28;45524;-76
2021/12/14 04:23:24;;;;;;;;;11.00;11.00;;;;;6.29;81.17;101943.16;4985374;28;45714;-76
2021/12/14 04:25:51;;;;;;;;;13.75;9.25;;;;;6.29;81.38;101947.56;5009479;28;45345;-75
2021/12/14 04:28:21;;;;;;;;;9.75;9.75;;;;;6.29;80.95;101950.19;4994151;28;45332;-76
2021/12/14 04:30:47;;;;;;;;;9.25;9.25;;;;;6.30;81.30;101965.97;4993731;28;45479;-74
2021/12/14 04:33:17;;;;;;;;;10.50;9.00;;;;;6.32;81.36;101980.00;4994212;28;45555;-76
2021/12/14 04:35:45;;;;;;;;;12.75;10.50;;;;;6.32;81.33;101969.50;5005181;28;45424;-76
2021/12/14 04:38:20;;;;;;;;;11.75;8.50;;;;;6.32;80.52;101974.75;5006402;28;45467;-76
2021/12/14 04:54:24;;;;;;;;;18.75;14.00;;;;;6.38;80.63;101963.47;5012252;28;45566;-77
2021/12/14 04:56:49;;;;;;;;;11.25;10.00;;;;;6.37;81.08;101972.22;5012542;28;45410;-75
2021/12/14 04:59:25;;;;;;;;;18.75;16.00;;;;;6.39;81.75;101966.13;5013687;28;45398;-76
2021/12/14 05:01:56;;;;;;;;;18.00;16.00;;;;;6.40;81.22;101969.63;5013603;28;45467;-77
2021/12/14 05:04:25;;;;;;;;;13.25;8.00;;;;;6.42;81.53;101974.91;4996960;28;45370;-75
2021/12/14 05:06:55;;;;;;;;;16.00;12.00;;;;;6.39;81.42;101968.75;4994359;28;46764;-76
2021/12/14 05:09:29;;;;;;;;;18.00;14.50;;;;;6.42;81.40;101973.16;5011245;28;45536;-75
2021/12/14 05:12:12;;;;;;;;;13.25;9.50;;;;;6.46;82.08;101974.13;5014268;28;45534;-76
2021/12/14 05:14:39;;;;;;;;;11.75;11.25;;;;;6.43;81.17;101960.94;5013355;28;45393;-77
2021/12/14 05:17:19;;;;;;;;;17.25;12.50;;;;;6.41;81.32;101963.53;4993367;28;47097;-76
2021/12/14 05:19:46;;;;;;;;;20.00;16.00;;;;;6.46;81.94;101969.75;5002890;28;45489;-76
2021/12/14 05:22:19;;;;;;;;;16.00;14.50;;;;;6.46;82.06;101979.38;5016445;28;45361;-76
2021/12/14 05:25:09;;;;;;;;;9.25;9.25;;;;;6.44;82.41;101974.09;5017531;28;45513;-76
2021/12/14 05:27:42;;;;;;;;;19.00;14.00;;;;;6.42;82.22;101969.66;5014647;28;45463;-75
2021/12/14 05:30:16;;;;;;;;;19.00;13.00;;;;;6.46;82.04;101976.75;5016999;28;45384;-76
2021/12/14 05:32:43;;;;;;;;;17.00;14.00;;;;;6.45;81.33;101978.47;5016835;28;45477;-76
2021/12/14 05:35:14;;;;;;;;;16.75;14.00;;;;;6.47;81.50;101975.88;5016684;28;45599;-76
2021/12/14 05:37:46;;;;;;;;;16.00;14.00;;;;;6.45;81.53;101973.22;5015113;28;45623;-76
2021/12/14 05:40:57;;;;;;;;;18.75;10.00;;;;;6.45;81.38;101981.09;5016134;28;45498;-76
2021/12/14 05:43:17;;;;;;;;;24.50;14.50;;;;;6.47;81.20;101979.41;5015985;28;45352;-76
2021/12/14 05:45:51;;;;;;;;;20.50;12.00;;;;;6.46;81.79;101980.25;4998422;28;45393;-76
2021/12/14 05:48:20;;;;;;;;;9.25;6.75;;;;;6.40;81.20;101967.00;5017730;28;46344;-75
2021/12/14 05:50:50;;;;;;;;;14.25;11.75;;;;;6.44;80.66;101975.81;5016292;28;45396;-76
2021/12/14 05:53:25;;;;;;;;;15.50;12.75;;;;;6.41;81.13;101968.78;5016204;28;45607;-75
2021/12/14 05:55:51;;;;;;;;;13.50;13.50;;;;;6.42;81.34;101975.78;5016649;28;45487;-78
2021/12/14 05:58:21;;;;;;;;;16.75;12.50;;;;;6.48;81.62;101980.28;5014586;28;46105;-76
2021/12/14 06:00:52;;;;;;;;;7.50;6.00;;;;;6.46;81.63;101975.00;5016364;28;45447;-77
2021/12/14 06:03:25;;;;;;;;;16.25;13.25;;;;;6.48;81.23;101985.53;5016059;28;45413;-76
2021/12/14 06:05:51;;;;;;;;;12.75;8.00;;;;;6.43;81.18;101993.34;4996204;28;45436;-76
2021/12/14 06:08:38;;;;;;;;;10.25;6.75;;;;;6.46;82.01;101998.66;5004514;28;46067;-77
2021/12/14 06:11:04;;;;;;;;;12.50;11.50;;;;;6.43;81.59;101987.22;5016032;28;45487;-76
2021/12/14 06:13:42;;;;;;;;;14.50;11.25;;;;;6.39;80.86;101986.25;5017588;28;45393;-76
2021/12/14 06:16:21;;;;;;;;;11.50;11.50;;;;;6.37;81.10;102006.34;4997287;28;45523;-76
2021/12/14 06:18:46;;;;;;;;;21.25;16.50;;;;;6.35;81.44;102027.34;5016449;28;45367;-76
2021/12/14 06:21:14;;;;;;;;;15.25;12.00;;;;;6.34;82.13;102027.31;5014170;28;45361;-77
2021/12/14 06:23:39;;;;;;;;;12.75;10.50;;;;;6.31;82.37;102030.75;5015624;28;45263;-76
2021/12/14 06:26:05;;;;;;;;;6.25;3.00;;;;;6.34;81.58;102032.56;4998369;28;45429;-76
2021/12/14 06:28:31;;;;;;;;;12.00;12.00;;;;;6.36;82.62;102041.34;5015671;28;46176;-78
2021/12/14 06:30:58;;;;;;;;;16.25;12.00;;;;;6.38;82.16;102042.28;5016088;28;45364;-76
2021/12/14 06:33:31;;;;;;;;;18.00;11.00;;;;;6.34;81.57;102036.06;5015557;28;45469;-76
2021/12/14 06:35:59;;;;;;;;;9.00;7.00;;;;;6.36;81.98;102041.34;4998829;28;45674;-76
2021/12/14 06:38:33;;;;;;;;;15.50;11.50;;;;;6.31;80.81;102036.00;5016769;28;45447;-77
2021/12/14 06:41:09;;;;;;;;;10.25;8.50;;;;;6.34;81.18;102043.06;5009306;28;45400;-76
2021/12/14 06:43:34;;;;;;;;;10.00;7.00;;;;;6.31;81.18;102045.63;4996745;28;45446;-76
2021/12/14 06:46:05;;;;;;;;;7.00;7.00;;;;;6.31;81.87;102041.25;5002969;28;45337;-77
2021/12/14 06:48:42;;;;;;;;;11.50;9.00;;;;;6.25;80.82;102045.50;5015100;28;45383;-78
2021/12/14 06:51:16;;;;;;;;;12.25;9.00;;;;;6.31;81.19;102061.38;5014428;28;45554;-76
2021/12/14 06:53:45;;;;;;;;;6.75;6.75;;;;;6.25;80.91;102066.50;5014583;28;45347;-77
2021/12/14 06:56:13;;;;;;;;;14.50;10.50;;;;;6.25;81.80;102056.00;5014734;28;45562;-77
2021/12/14 06:58:49;;;;;;;;;10.50;8.00;;;;;6.26;81.51;102057.78;5015258;28;46099;-77
2021/12/14 07:01:20;;;;;;;;;9.00;8.00;;;;;6.28;81.91;102053.44;5017271;28;45416;-76
2021/12/14 07:03:47;;;;;;;;;9.25;8.00;;;;;6.31;81.84;102056.13;5015713;28;45487;-80
2021/12/14 07:06:40;;;;;;;;;22.75;15.75;;;;;6.28;81.53;102058.69;5006299;28;45584;-79
2021/12/14 07:09:11;;;;;;;;;12.50;10.50;;;;;6.28;81.58;102066.56;5017961;28;45459;-80
2021/12/14 07:11:40;;;;;;;;;10.00;7.00;;;;;6.30;82.32;102070.09;5019946;28;45500;-81
2021/12/14 07:14:21;;;;;;;;;10.75;9.50;;;;;6.27;82.30;102059.53;5022946;28;45363;-81
2021/12/14 07:16:47;;;;;;;;;19.50;13.50;;;;;6.29;81.76;102065.72;5027998;28;45265;-81
2021/12/14 07:19:13;;;;;;;;;11.50;7.00;;;;;6.32;81.48;102057.91;5038498;28;45433;-80
2021/12/14 07:21:45;;;;;;;;;11.25;7.75;;;;;6.35;81.25;102057.97;5034610;28;45543;-80
2021/12/14 07:24:22;;;;;;;;;12.50;10.00;;;;;6.34;81.93;102056.19;5025745;28;44866;-80
2021/12/14 07:26:50;;;;;;;;;13.00;9.00;;;;;6.34;81.73;102057.06;5001943;28;45440;-79
2021/12/14 07:29:22;;;;;;;;;12.25;11.50;;;;;6.34;81.25;102051.81;4981250;28;47000;-80
2021/12/14 07:31:48;;;;;;;;;14.00;10.50;;;;;6.31;81.73;102056.13;5000295;28;45411;-80
2021/12/14 07:34:13;;;;;;;;;11.00;11.00;;;;;6.32;81.55;102055.28;4998169;28;45348;-80
2021/12/14 07:36:39;;;;;;;;;9.25;6.50;;;;;6.34;81.57;102062.31;4996540;28;45688;-76
2021/12/14 07:39:11;;;;;;;;;10.75;7.50;;;;;6.35;81.04;102058.84;5010866;28;45510;-77
2021/12/14 07:41:44;;;;;;;;;6.50;5.00;;;;;6.41;81.50;102065.97;5016287;28;45364;-77
2021/12/14 07:44:14;;;;;;;;;17.00;10.00;;;;;6.42;81.27;102067.72;5003410;28;45540;-76
2021/12/14 07:46:42;;;;;;;;;14.50;7.50;;;;;6.43;81.61;102071.25;5004426;28;45493;-78
2021/12/14 07:49:07;;;;;;;;;14.75;14.00;;;;;6.44;81.09;102067.75;5003074;28;45404;-76
2021/12/14 07:51:36;;;;;;;;;10.00;9.25;;;;;6.44;80.80;102073.00;5005944;28;45429;-77
2021/12/14 07:54:09;;;;;;;;;16.75;9.25;;;;;6.44;80.50;102068.66;5014856;28;45444;-75
2021/12/14 07:56:49;;;;;;;;;13.25;8.00;;;;;6.46;81.44;102080.09;5010188;28;45542;-76
2021/12/14 07:59:34;;;;;;;;;15.50;13.50;;;;;6.50;80.88;102083.66;5000635;28;45447;-76
2021/12/14 08:02:21;;;;;;;;;9.00;9.00;;;;;6.49;80.65;102088.03;4994772;28;45569;-77
2021/12/14 08:04:58;;;;;;;;;16.25;10.00;;;;;6.52;80.91;102093.34;4994671;28;45492;-77
2021/12/14 08:07:31;;;;;;;;;12.25;9.00;;;;;6.53;80.59;102089.88;4995542;28;45400;-78
2021/12/14 08:10:18;;;;;;;;;14.50;6.75;;;;;6.55;81.17;102093.41;4994399;28;45594;-77
2021/12/14 08:12:52;;;;;;;;;12.75;9.25;;;;;6.56;80.81;102103.06;4986824;28;45517;-81
2021/12/14 08:15:20;;;;;;;;;8.75;6.00;;;;;6.56;80.24;102110.06;5018610;28;45456;-82
2021/12/14 08:17:57;;;;;;;;;12.50;12.00;;;;;6.56;80.02;102121.47;5019846;28;45316;-82
2021/12/14 08:20:25;;;;;;;;;18.25;14.00;;;;;6.57;80.15;102111.81;4992260;28;46817;-82
2021/12/14 08:22:51;;;;;;;;;12.75;12.25;;;;;6.61;80.08;102123.31;5009625;28;45486;-81
2021/12/14 08:25:24;;;;;;;;;12.00;8.50;;;;;6.64;80.66;102123.38;4995819;28;45440;-79
2021/12/14 08:28:00;;;;;;;;;11.25;9.75;;;;;6.62;80.46;102125.06;4995932;28;45503;-82
2021/12/14 08:30:26;;;;;;;;;23.50;14.00;;;;;6.65;79.97;102136.53;4989930;28;45503;-82
2021/12/14 08:32:52;;;;;;;;;16.00;10.50;;;;;6.65;80.02;102123.41;5015960;28;45415;-81
2021/12/14 08:35:18;;;;;;;;;11.25;8.00;;;;;6.70;80.07;102119.13;5023875;28;45417;-81
2021/12/14 08:37:50;;;;;;;;;10.00;8.50;;;;;6.71;79.72;102127.88;5013273;28;45303;-80
2021/12/14 08:40:23;;;;;;;;;18.75;8.25;;;;;6.74;80.14;102117.41;5011082;28;45490;-81
2021/12/14 08:43:03;;;;;;;;;12.25;9.75;;;;;6.75;80.07;102117.44;5005834;28;45424;-81
2021/12/14 08:45:43;;;;;;;;;14.25;11.00;;;;;6.80;80.09;102124.56;5005316;28;45579;-81
2021/12/14 08:48:17;;;;;;;;;12.75;11.50;;;;;6.79;79.39;102123.69;5018866;28;45388;-79
2021/12/14 08:50:54;;;;;;;;;14.00;9.50;;;;;6.84;80.02;102126.41;5012322;28;45581;-80
2021/12/14 08:53:21;;;;;;;;;12.75;12.00;;;;;6.87;79.07;102143.09;5010499;28;45389;-81
2021/12/14 08:55:51;;;;;;;;;11.50;9.00;;;;;6.88;78.79;102144.88;5016315;28;45530;-81
2021/12/14 08:58:18;;;;;;;;;16.25;12.50;;;;;6.88;79.38;102147.50;5020715;28;45345;-80
2021/12/14 09:00:50;;;;;;;;;12.50;10.50;;;;;6.91;78.68;102149.34;5014369;28;46190;-78
2021/12/14 09:03:25;;;;;;;;;12.25;7.50;;;;;6.88;79.31;102147.50;5000827;28;45317;-77
2021/12/14 09:05:52;;;;;;;;;18.25;14.00;;;;;6.93;78.60;102143.22;5013130;28;45453;-76
2021/12/14 09:08:20;;;;;;;;;14.50;9.25;;;;;6.99;79.18;102138.97;5002159;28;45497;-75
2021/12/14 09:10:50;;;;;;;;;19.25;15.00;;;;;7.00;79.20;102138.09;5019564;28;45384;-76
2021/12/14 09:13:15;;;;;;;;;17.50;12.50;;;;;7.04;79.05;102142.56;5006875;28;45332;-76
2021/12/14 09:15:44;;;;;;;;;9.50;8.75;;;;;7.07;78.82;102121.59;4999325;28;45445;-75
2021/12/14 09:18:10;;;;;;;;;16.25;11.50;;;;;7.07;78.20;102127.72;5000101;28;45416;-76
2021/12/14 09:20:51;;;;;;;;;15.75;15.00;;;;;7.13;78.93;102131.34;5004101;28;45570;-75
2021/12/14 09:23:30;;;;;;;;;21.25;16.25;;;;;7.18;78.92;102130.56;5006451;28;45460;-75
2021/12/14 09:25:56;;;;;;;;;19.50;15.75;;;;;7.23;78.84;102136.78;5003574;28;45492;-75
2021/12/14 09:28:21;;;;;;;;;12.75;11.25;;;;;7.26;77.71;102141.22;5009672;28;45488;-76
2021/12/14 09:30:56;;;;;;;;;19.00;10.50;;;;;7.27;78.12;102143.91;4999425;28;45915;-74
2021/12/14 09:33:24;;;;;;;;;16.75;12.75;;;;;7.32;77.74;102140.44;5016275;28;45424;-75
2021/12/14 09:35:52;;;;;;;;;13.50;7.50;;;;;7.32;77.38;102138.72;5009060;28;45615;-76
2021/12/14 09:38:19;;;;;;;;;16.00;12.75;;;;;7.35;78.03;102140.50;5011787;28;45599;-75
2021/12/14 09:41:06;;;;;;;;;16.00;12.25;;;;;7.38;77.05;102140.56;5014792;28;45453;-76
2021/12/14 09:43:32;;;;;;;;;23.00;12.25;;;;;7.42;77.34;102142.38;5000068;28;45569;-76
2021/12/14 09:45:59;;;;;;;;;12.50;10.00;;;;;7.46;76.61;102154.75;5004375;28;45535;-76
2021/12/14 09:48:30;;;;;;;;;21.25;14.00;;;;;7.47;76.62;102159.16;5012647;28;45356;-80
2021/12/14 09:51:03;;;;;;;;;14.75;12.00;;;;;7.45;77.87;102145.97;5015501;28;46080;-80
2021/12/14 09:53:29;;;;;;;;;8.75;7.25;;;;;7.50;76.68;102151.31;5017243;28;45365;-80
2021/12/14 09:55:57;;;;;;;;;9.25;3.50;;;;;7.51;76.99;102155.69;5029907;28;45400;-79
2021/12/14 09:58:29;;;;;;;;;16.00;14.50;;;;;7.54;77.19;102158.38;5026457;28;45412;-80
2021/12/14 10:01:16;;;;;;;;;14.50;12.75;;;;;7.56;76.31;102166.31;5007205;28;46263;-80
2021/12/14 10:03:44;;;;;;;;;20.00;15.75;;;;;7.49;76.61;102149.53;4994335;28;45548;-76
2021/12/14 10:06:13;;;;;;;;;17.00;14.00;;;;;7.60;76.08;102163.75;5002885;28;45443;-76
2021/12/14 10:08:45;;;;;;;;;19.50;12.25;;;;;7.60;77.15;102163.75;5013052;28;45627;-77
2021/12/14 10:11:27;;;;;;;;;17.00;13.00;;;;;7.64;76.36;102164.72;5004430;28;45412;-76
2021/12/14 10:13:56;;;;;;;;;15.75;12.25;;;;;7.67;75.79;102158.59;4997286;28;45392;-76
2021/12/14 10:16:22;;;;;;;;;15.75;15.00;;;;;7.68;76.42;102156.00;5013819;28;45494;-75
2021/12/14 10:18:59;;;;;;;;;20.50;13.00;;;;;7.73;76.24;102161.31;5013820;28;45510;-76
2021/12/14 10:21:38;;;;;;;;;24.00;15.75;;;;;7.74;75.65;102164.00;5013262;28;45721;-80
2021/12/14 10:24:07;;;;;;;;;13.75;10.00;;;;;7.74;76.20;102163.13;4988991;28;45547;-76
2021/12/14 10:26:35;;;;;;;;;27.00;16.00;;;;;7.73;75.41;102159.59;5004475;28;45383;-81
2021/12/14 10:29:01;;;;;;;;;15.25;10.00;;;;;7.79;76.31;102158.84;5023486;28;45675;-82
2021/12/14 10:31:37;;;;;;;;;21.50;12.00;;;;;7.79;75.81;102164.97;5017873;28;45459;-79
2021/12/14 10:34:08;;;;;;;;;21.25;14.50;;;;;7.70;75.35;102137.59;4995391;28;45502;-81
2021/12/14 10:36:43;;;;;;;;;16.00;14.50;;;;;7.87;75.52;102161.59;5011327;28;45383;-82
2021/12/14 10:44:37;;;;;;;;;19.75;15.00;;;;;7.89;75.61;102160.72;5011367;28;45317;-81
2021/12/14 10:47:03;;;;;;;;;15.50;12.25;;;;;7.96;75.13;102167.88;5014845;28;46539;-81
2021/12/14 10:49:29;;;;;;;;;12.25;9.00;;;;;7.96;75.09;102157.34;5009172;28;45502;-80
2021/12/14 10:51:59;;;;;;;;;20.50;15.75;;;;;8.01;75.56;102160.03;5018446;28;45715;-79
2021/12/14 10:54:26;;;;;;;;;21.00;15.00;;;;;8.05;75.05;102160.97;5014644;28;45639;-79
2021/12/14 10:57:02;;;;;;;;;19.25;14.75;;;;;8.07;75.14;102167.16;5004688;28;45499;-78
2021/12/14 10:59:34;;;;;;;;;21.25;15.00;;;;;8.11;74.82;102176.91;5003033;28;45332;-81
2021/12/14 11:02:00;;;;;;;;;19.50;12.00;;;;;8.13;75.01;102164.63;4992445;28;47127;-81
2021/12/14 11:04:42;;;;;;;;;22.75;17.25;;;;;8.16;74.71;102164.66;5012137;28;45512;-80
2021/12/14 11:07:11;;;;;;;;;14.00;14.00;;;;;8.18;74.37;102158.56;5018532;28;45380;-82
2021/12/14 11:12:09;;;;;;;;;15.00;12.75;;;;;8.12;74.30;102142.69;5008681;28;46975;-79
2021/12/14 11:14:37;;;;;;;;;22.75;20.50;;;;;8.24;74.81;102163.03;5009682;28;45453;-77
2021/12/14 11:20:09;;;;;;;;;15.25;11.75;;;;;8.36;74.11;102149.16;5009860;28;45396;-81
2021/12/14 11:22:50;;;;;;;;;24.75;18.00;;;;;8.39;73.96;102146.56;5002133;28;45982;-82
2021/12/14 11:25:20;;;;;;;;;16.50;15.75;;;;;8.45;73.79;102156.34;4993134;28;45336;-82
2021/12/14 11:28:08;;;;;;;;;20.50;18.00;;;;;8.51;73.12;102148.50;4995871;28;45523;-81
2021/12/14 11:30:47;;;;;;;;;18.75;15.50;;;;;8.52;73.24;102152.94;5003249;28;45435;-81
2021/12/14 11:33:21;;;;;;;;;16.00;14.00;;;;;8.55;73.00;102152.97;5008683;28;46307;-81
2021/12/14 11:35:59;;;;;;;;;16.50;12.75;;;;;8.61;73.53;102153.06;5006119;28;45477;-80
2021/12/14 11:38:37;;;;;;;;;18.00;16.50;;;;;8.67;72.94;102158.41;5000455;28;45323;-83
2021/12/14 11:41:37;;;;;;;;;15.50;15.50;;;;;8.65;73.33;102148.69;5000006;28;45431;-80
2021/12/14 11:44:23;;;;;;;;;16.50;15.00;;;;;8.69;72.51;102143.47;5002756;28;45535;-81
2021/12/14 11:46:52;;;;;;;;;23.75;17.00;;;;;8.66;72.50;102140.81;4986786;28;45392;-81
2021/12/14 11:49:21;;;;;;;;;18.75;16.50;;;;;8.68;72.72;102133.81;5004969;28;45495;-76
2021/12/14 11:51:47;;;;;;;;;23.00;15.50;;;;;8.73;73.21;102147.06;5003871;28;45572;-77
2021/12/14 11:54:16;;;;;;;;;21.50;18.00;;;;;8.69;73.13;102135.56;5001111;28;45641;-76
2021/12/14 11:56:41;;;;;;;;;20.00;15.50;;;;;8.68;72.54;102123.28;5004258;28;45781;-77
2021/12/14 11:59:08;;;;;;;;;24.75;16.00;;;;;8.74;72.99;102129.47;4985376;28;45520;-77
2021/12/14 12:01:46;;;;;;;;;31.50;24.50;;;;;8.76;72.34;102118.09;5000892;28;45476;-77
2021/12/14 12:04:21;;;;;;;;;20.75;15.00;;;;;8.83;72.36;102126.94;4986482;28;46327;-76
2021/12/14 12:09:28;;;;;;;;;21.25;18.25;;;;;8.89;72.81;102122.63;4995137;28;45370;-78
2021/12/14 12:12:06;;;;;;;;;21.75;19.00;;;;;8.91;72.76;102122.63;4999571;28;45553;-76
2021/12/14 12:14:39;;;;;;;;;23.25;17.25;;;;;8.95;72.41;102116.53;4982240;28;46233;-76
2021/12/14 12:17:40;;;;;;;;;18.50;17.25;;;;;8.99;72.09;102112.22;5004033;28;45530;-77
2021/12/14 12:20:33;;;;;;;;;22.25;15.50;;;;;9.04;71.95;102110.50;5005270;28;45461;-76
2021/12/14 12:23:05;;;;;;;;;16.00;15.50;;;;;9.06;71.94;102114.00;5010689;28;45678;-77
2021/12/14 12:25:38;;;;;;;;;20.00;18.50;;;;;9.13;72.17;102115.84;5003345;28;45610;-77